createdAt,value
2023-04-07T00:02:17.001Z,7.63
2023-04-07T00:04:45.153Z,7.60
2023-04-07T00:07:13.316Z,6.72
2023-04-07T00:09:41.752Z,6.90
2023-04-07T00:12:11.770Z,6.63
2023-04-07T00:14:40.149Z,6.82
2023-04-07T00:17:08.228Z,7.03
2023-04-07T00:19:36.775Z,7.68
2023-04-07T00:22:04.832Z,7.70
2023-04-07T00:24:34.623Z,7.65
2023-04-07T00:27:03.151Z,7.63
2023-04-07T00:29:33.001Z,7.32
2023-04-07T00:32:01.156Z,7.90
2023-04-07T00:34:29.275Z,7.00
2023-04-07T00:36:57.662Z,7.20
2023-04-07T00:39:27.600Z,7.93
2023-04-07T00:41:56.672Z,9.00
2023-04-07T00:44:24.840Z,8.07
2023-04-07T00:46:54.693Z,8.02
2023-04-07T00:49:22.917Z,8.20
2023-04-07T00:51:51.619Z,9.10
2023-04-07T00:54:19.998Z,7.75
2023-04-07T00:56:48.107Z,9.13
2023-04-07T00:59:16.782Z,8.00
2023-04-07T01:01:49.733Z,8.45
2023-04-07T01:04:28.726Z,9.43
2023-04-07T01:07:03.731Z,8.50
2023-04-07T01:09:38.955Z,9.10
2023-04-07T01:12:13.821Z,8.43
2023-04-07T01:14:47.295Z,9.18
2023-04-07T01:17:17.286Z,9.00
2023-04-07T01:19:52.964Z,8.30
2023-04-07T01:22:27.732Z,9.52
2023-04-07T01:25:29.010Z,8.02
2023-04-07T01:28:14.115Z,8.43
2023-04-07T01:30:45.955Z,8.10
2023-04-07T01:33:15.844Z,8.95
2023-04-07T01:35:44.909Z,8.68
2023-04-07T01:38:14.240Z,8.07
2023-04-07T01:40:42.858Z,8.60
2023-04-07T01:43:12.576Z,8.90
2023-04-07T01:45:42.534Z,8.40
2023-04-07T01:48:13.456Z,8.02
2023-04-07T01:50:42.161Z,7.53
2023-04-07T01:53:10.669Z,6.85
2023-04-07T01:55:39.476Z,8.20
2023-04-07T01:58:07.646Z,7.65
2023-04-07T02:00:35.799Z,7.75
2023-04-07T02:03:20.809Z,7.22
2023-04-07T02:05:50.814Z,8.35
2023-04-07T02:08:21.383Z,6.82
2023-04-07T02:10:51.997Z,7.85
2023-04-07T02:13:22.108Z,7.82
2023-04-07T02:15:51.539Z,8.27
2023-04-07T02:18:22.412Z,8.60
2023-04-07T02:20:53.641Z,8.30
2023-04-07T02:23:21.961Z,8.02
2023-04-07T02:25:50.488Z,7.30
2023-04-07T02:28:18.636Z,8.80
2023-04-07T02:30:46.728Z,7.47
2023-04-07T02:33:14.831Z,6.63
2023-04-07T02:35:44.529Z,8.45
2023-04-07T02:38:12.962Z,8.40
2023-04-07T02:40:41.219Z,7.90
2023-04-07T02:43:09.643Z,9.40
2023-04-07T02:45:37.793Z,8.93
2023-04-07T02:48:06.280Z,8.05
2023-04-07T02:50:34.404Z,8.27
2023-04-07T02:53:03.873Z,8.32
2023-04-07T02:55:32.259Z,8.50
2023-04-07T02:58:00.326Z,7.50
2023-04-07T03:00:28.475Z,7.40
2023-04-07T03:02:56.965Z,8.80
2023-04-07T03:05:25.442Z,7.70
2023-04-07T03:07:53.497Z,8.07
2023-04-07T03:10:23.001Z,7.73
2023-04-07T03:12:51.077Z,9.23
2023-04-07T03:15:19.368Z,8.90
2023-04-07T03:17:47.937Z,7.43
2023-04-07T03:20:17.232Z,8.77
2023-04-07T03:22:47.320Z,8.43
2023-04-07T03:25:15.860Z,7.77
2023-04-07T03:27:45.509Z,6.70
2023-04-07T03:30:14.438Z,6.97
2023-04-07T03:32:42.568Z,7.73
2023-04-07T03:35:11.402Z,7.07
2023-04-07T03:37:39.858Z,7.50
2023-04-07T03:40:08.926Z,7.07
2023-04-07T03:42:37.027Z,7.20
2023-04-07T03:45:07.583Z,6.17
2023-04-07T03:47:35.728Z,6.13
2023-04-07T03:50:03.880Z,6.97
2023-04-07T03:52:32.337Z,7.13
2023-04-07T03:55:00.539Z,6.20
2023-04-07T03:57:28.621Z,6.40
2023-04-07T03:59:57.055Z,6.00
2023-04-07T04:02:26.970Z,5.90
2023-04-07T04:04:55.504Z,5.57
2023-04-07T04:07:23.889Z,5.60
2023-04-07T04:09:51.946Z,5.70
2023-04-07T04:12:20.549Z,6.10
2023-04-07T04:14:48.928Z,5.60
2023-04-07T04:17:17.004Z,6.10
2023-04-07T04:19:46.739Z,6.50
2023-04-07T04:22:15.453Z,7.00
2023-04-07T04:24:43.782Z,6.17
2023-04-07T04:27:12.200Z,6.77
2023-04-07T04:29:40.939Z,7.13
2023-04-07T04:32:09.659Z,5.53
2023-04-07T04:34:38.023Z,5.73
2023-04-07T04:37:07.485Z,6.60
2023-04-07T04:39:35.743Z,6.17
2023-04-07T04:42:04.151Z,5.30
2023-04-07T04:44:32.496Z,5.50
2023-04-07T04:47:00.844Z,5.70
2023-04-07T04:49:28.945Z,5.57
2023-04-07T04:51:57.054Z,5.90
2023-04-07T04:54:26.592Z,6.07
2023-04-07T04:56:56.847Z,6.87
2023-04-07T04:59:26.910Z,6.13
2023-04-07T05:01:55.499Z,6.30
2023-04-07T05:04:23.862Z,5.83
2023-04-07T05:06:52.383Z,6.47
2023-04-07T05:09:20.500Z,6.30
2023-04-07T05:11:49.992Z,7.43
2023-04-07T05:14:18.126Z,6.47
2023-04-07T05:16:46.206Z,5.67
2023-04-07T05:19:14.588Z,5.57
2023-04-07T05:21:42.706Z,5.93
2023-04-07T05:24:11.131Z,5.80
2023-04-07T05:26:39.242Z,7.50
2023-04-07T05:29:08.743Z,6.30
2023-04-07T05:31:37.467Z,5.43
2023-04-07T05:34:05.834Z,7.10
2023-04-07T05:36:34.495Z,6.30
2023-04-07T05:39:02.900Z,6.20
2023-04-07T05:41:31.351Z,5.50
2023-04-07T05:43:59.461Z,6.00
2023-04-07T05:46:29.215Z,5.93
2023-04-07T05:48:59.126Z,4.97
2023-04-07T05:51:27.848Z,5.77
2023-04-07T05:53:55.960Z,5.63
2023-04-07T05:56:24.019Z,5.80
2023-04-07T05:58:52.547Z,5.93
2023-04-07T06:01:20.708Z,5.90
2023-04-07T06:03:50.684Z,5.93
2023-04-07T06:06:19.411Z,6.43
2023-04-07T06:08:47.529Z,5.70
2023-04-07T06:11:15.779Z,5.30
2023-04-07T06:13:43.896Z,5.45
2023-04-07T06:16:12.129Z,5.45
2023-04-07T06:18:40.417Z,5.63
2023-04-07T06:21:10.182Z,5.97
2023-04-07T06:23:38.318Z,5.32
2023-04-07T06:26:06.866Z,5.20
2023-04-07T06:28:35.012Z,6.43
2023-04-07T06:31:03.440Z,5.07
2023-04-07T06:33:31.881Z,5.55
2023-04-07T06:36:00.259Z,5.22
2023-04-07T06:38:29.728Z,5.50
2023-04-07T06:40:58.111Z,4.90
2023-04-07T06:43:26.642Z,5.65
2023-04-07T06:45:54.732Z,5.55
2023-04-07T06:48:24.296Z,5.55
2023-04-07T06:50:52.756Z,5.03
2023-04-07T06:53:20.971Z,5.50
2023-04-07T06:55:50.448Z,4.53
2023-04-07T06:58:18.719Z,5.18
2023-04-07T07:00:46.801Z,4.78
2023-04-07T07:03:15.767Z,5.00
2023-04-07T07:05:44.031Z,5.00
2023-04-07T07:08:12.133Z,5.57
2023-04-07T07:10:40.284Z,5.28
2023-04-07T07:13:10.012Z,4.80
2023-04-07T07:15:38.137Z,4.90
2023-04-07T07:18:06.851Z,4.63
2023-04-07T07:20:35.017Z,5.28
2023-04-07T07:23:03.077Z,5.22
2023-04-07T07:25:31.475Z,5.15
2023-04-07T07:27:59.608Z,5.07
2023-04-07T07:30:29.412Z,5.40
2023-04-07T07:32:57.581Z,5.75
2023-04-07T07:35:26.265Z,5.30
2023-04-07T07:37:54.644Z,5.13
2023-04-07T07:40:22.764Z,5.20
2023-04-07T07:42:51.135Z,5.43
2023-04-07T07:45:19.710Z,5.30
2023-04-07T07:47:49.383Z,5.30
2023-04-07T07:50:17.475Z,5.25
2023-04-07T07:52:46.319Z,4.57
2023-04-07T07:55:14.949Z,5.30
2023-04-07T07:57:43.138Z,5.07
2023-04-07T08:00:12.765Z,4.93
2023-04-07T08:02:41.322Z,5.53
2023-04-07T08:05:11.405Z,4.82
2023-04-07T08:07:39.665Z,4.97
2023-04-07T08:10:08.739Z,5.10
2023-04-07T08:12:36.836Z,5.55
2023-04-07T08:15:05.386Z,4.47
2023-04-07T08:17:33.798Z,5.38
2023-04-07T08:20:02.392Z,4.88
2023-04-07T08:22:31.908Z,4.47
2023-04-07T08:25:00.352Z,4.30
2023-04-07T08:27:28.455Z,4.57
2023-04-07T08:30:01.699Z,4.95
2023-04-07T08:32:36.853Z,3.97
2023-04-07T08:35:05.736Z,3.97
2023-04-07T08:37:36.747Z,5.07
2023-04-07T08:40:05.619Z,4.45
2023-04-07T08:42:35.288Z,4.55
2023-04-07T08:45:06.644Z,4.38
2023-04-07T08:47:36.767Z,4.68
2023-04-07T08:50:07.224Z,4.03
2023-04-07T08:52:42.790Z,4.63
2023-04-07T08:55:11.627Z,4.28
2023-04-07T08:57:40.964Z,4.13
2023-04-07T09:00:10.488Z,4.78
2023-04-07T09:02:40.500Z,4.47
2023-04-07T09:05:10.421Z,3.83
2023-04-07T09:07:43.485Z,3.63
2023-04-07T09:10:11.852Z,3.78
2023-04-07T09:12:40.465Z,3.58
2023-04-07T09:15:10.034Z,4.35
2023-04-07T09:17:38.451Z,3.78
2023-04-07T09:20:07.294Z,4.40
2023-04-07T09:22:42.466Z,4.10
2023-04-07T09:25:18.855Z,4.20
2023-04-07T09:28:00.322Z,3.50
2023-04-07T09:30:29.737Z,3.60
2023-04-07T09:32:59.233Z,4.38
2023-04-07T09:35:28.758Z,3.47
2023-04-07T09:38:05.805Z,3.90
2023-04-07T09:40:34.260Z,3.30
2023-04-07T09:43:04.534Z,3.20
2023-04-07T09:45:36.637Z,3.05
2023-04-07T09:48:09.996Z,3.85
2023-04-07T09:50:41.492Z,3.38
2023-04-07T09:53:11.551Z,3.08
2023-04-07T09:55:41.893Z,3.42
2023-04-07T09:58:10.788Z,3.42
2023-04-07T10:00:39.203Z,3.25
2023-04-07T10:03:08.765Z,3.40
2023-04-07T10:05:37.454Z,3.30
2023-04-07T10:08:07.626Z,3.28
2023-04-07T10:10:37.957Z,3.75
2023-04-07T10:13:06.699Z,3.70
2023-04-07T10:15:34.914Z,3.05
2023-04-07T10:18:08.807Z,3.20
2023-04-07T10:20:40.857Z,2.53
2023-04-07T10:23:17.616Z,3.28
2023-04-07T10:25:48.897Z,3.00
2023-04-07T10:28:19.100Z,3.97
2023-04-07T10:30:49.883Z,3.22
2023-04-07T10:33:18.568Z,3.08
2023-04-07T10:36:07.071Z,2.85
2023-04-07T10:38:35.502Z,3.10
2023-04-07T10:41:35.038Z,3.42
2023-04-07T10:44:04.282Z,3.60
2023-04-07T10:47:04.049Z,4.13
2023-04-07T10:49:32.425Z,3.20
2023-04-07T10:52:26.318Z,3.70
2023-04-07T10:55:32.138Z,3.30
2023-04-07T10:58:31.948Z,3.50
2023-04-07T11:01:20.771Z,3.65
2023-04-07T11:03:58.126Z,3.10
2023-04-07T11:06:27.197Z,3.38
2023-04-07T11:08:55.530Z,3.42
2023-04-07T11:11:43.256Z,3.85
2023-04-07T11:14:12.724Z,3.55
2023-04-07T11:16:46.087Z,2.97
2023-04-07T11:19:14.240Z,3.65
2023-04-07T11:21:42.682Z,3.75
2023-04-07T11:24:10.838Z,3.35
2023-04-07T11:26:40.641Z,3.15
2023-04-07T11:29:09.304Z,2.55
2023-04-07T11:31:40.312Z,3.80
2023-04-07T11:34:09.198Z,3.38
2023-04-07T11:36:41.167Z,2.88
2023-04-07T11:39:20.900Z,3.70
2023-04-07T11:41:50.257Z,3.80
2023-04-07T11:44:18.786Z,2.97
2023-04-07T11:46:59.704Z,3.03
2023-04-07T11:49:29.620Z,3.13
2023-04-07T11:52:02.620Z,3.33
2023-04-07T11:54:41.570Z,2.97
2023-04-07T11:57:12.466Z,2.83
2023-04-07T11:59:41.516Z,3.80
2023-04-07T12:02:11.265Z,3.38
2023-04-07T12:04:41.064Z,2.80
2023-04-07T12:07:10.936Z,2.75
2023-04-07T12:09:39.458Z,2.72
2023-04-07T12:12:10.962Z,2.88
2023-04-07T12:14:39.436Z,2.70
2023-04-07T12:17:09.433Z,2.95
2023-04-07T12:19:39.785Z,3.08
2023-04-07T12:22:08.270Z,2.63
2023-04-07T12:24:36.455Z,2.58
2023-04-07T12:27:04.946Z,2.80
2023-04-07T12:29:33.306Z,2.78
2023-04-07T12:32:02.334Z,3.30
2023-04-07T12:34:30.476Z,2.92
2023-04-07T12:37:00.239Z,2.95
2023-04-07T12:39:28.465Z,2.47
2023-04-07T12:41:58.586Z,3.28
2023-04-07T12:44:27.012Z,3.47
2023-04-07T12:46:55.127Z,3.47
2023-04-07T12:49:23.241Z,3.72
2023-04-07T12:51:52.738Z,3.58
2023-04-07T12:54:22.247Z,3.70
2023-04-07T12:56:50.919Z,3.65
2023-04-07T12:59:19.034Z,2.65
2023-04-07T13:01:49.559Z,2.92
2023-04-07T13:04:19.594Z,3.80
2023-04-07T13:06:47.738Z,3.50
2023-04-07T13:09:16.700Z,2.63
2023-04-07T13:11:46.145Z,3.08
2023-04-07T13:14:14.348Z,3.20
2023-04-07T13:16:43.108Z,3.28
2023-04-07T13:19:11.239Z,3.25
2023-04-07T13:24:10.443Z,2.60
2023-04-07T13:26:38.622Z,3.28
2023-04-07T13:29:08.066Z,3.22
2023-04-07T13:31:36.356Z,3.22
2023-04-07T13:34:04.501Z,2.63
2023-04-07T13:36:33.168Z,3.33
2023-04-07T13:39:02.283Z,3.15
2023-04-07T13:41:30.622Z,2.80
2023-04-07T13:43:59.456Z,3.15
2023-04-07T13:46:29.605Z,3.28
2023-04-07T13:48:57.901Z,3.15
2023-04-07T13:51:26.075Z,3.05
2023-04-07T13:53:54.255Z,3.38
2023-04-07T13:56:22.561Z,2.80
2023-04-07T13:58:50.682Z,2.70
2023-04-07T14:01:19.227Z,3.13
2023-04-07T14:03:49.511Z,3.00
2023-04-07T14:06:18.009Z,2.97
2023-04-07T14:08:46.116Z,2.33
2023-04-07T14:11:18.100Z,3.20
2023-04-07T14:13:46.843Z,3.17
2023-04-07T14:16:15.147Z,3.10
2023-04-07T14:18:43.659Z,2.88
2023-04-07T14:21:13.108Z,2.58
2023-04-07T14:23:42.589Z,3.00
2023-04-07T14:26:12.341Z,3.13
2023-04-07T14:28:41.129Z,3.20
2023-04-07T14:31:14.284Z,2.65
2023-04-07T14:33:42.872Z,2.88
2023-04-07T14:36:12.587Z,3.28
2023-04-07T14:38:41.024Z,2.75
2023-04-07T14:41:10.447Z,2.85
2023-04-07T14:43:39.404Z,3.33
2023-04-07T14:46:07.879Z,3.15
2023-04-07T14:48:36.014Z,3.97
2023-04-07T14:51:09.764Z,2.80
2023-04-07T14:53:39.800Z,2.60
2023-04-07T14:56:08.577Z,2.10
2023-04-07T14:58:39.210Z,2.08
2023-04-07T15:01:07.953Z,1.83
2023-04-07T15:03:36.803Z,2.08
2023-04-07T15:06:08.883Z,2.15
2023-04-07T15:08:36.968Z,1.52
2023-04-07T15:11:07.809Z,1.15
2023-04-07T15:13:36.454Z,1.67
2023-04-07T15:16:09.121Z,2.10
2023-04-07T15:18:37.434Z,2.20
2023-04-07T15:21:06.104Z,1.80
2023-04-07T15:23:34.978Z,1.55
2023-04-07T15:26:03.077Z,1.90
2023-04-07T15:28:32.676Z,1.65
2023-04-07T15:31:01.260Z,1.58
2023-04-07T15:33:29.560Z,2.05
2023-04-07T15:35:59.664Z,1.98
2023-04-07T15:38:28.929Z,1.20
2023-04-07T15:40:57.074Z,1.45
2023-04-07T15:43:25.892Z,1.65
2023-04-07T15:45:56.531Z,1.60
2023-04-07T15:48:25.136Z,1.40
2023-04-07T15:50:54.659Z,1.52
2023-04-07T15:53:22.899Z,1.05
2023-04-07T15:55:51.339Z,1.40
2023-04-07T15:58:19.414Z,1.38
2023-04-07T16:00:47.868Z,1.35
2023-04-07T16:03:17.461Z,1.95
2023-04-07T16:05:45.674Z,1.85
2023-04-07T16:08:14.036Z,1.10
2023-04-07T16:10:42.214Z,0.98
2023-04-07T16:13:11.159Z,1.42
2023-04-07T16:15:41.259Z,1.60
2023-04-07T16:18:12.195Z,1.30
2023-04-07T16:20:42.123Z,1.08
2023-04-07T16:23:11.141Z,1.15
2023-04-07T16:25:39.230Z,1.45
2023-04-07T16:28:07.797Z,1.05
2023-04-07T16:30:36.237Z,1.20
2023-04-07T16:33:04.726Z,1.38
2023-04-07T16:35:32.969Z,1.10
2023-04-07T16:38:05.072Z,1.17
2023-04-07T16:40:33.652Z,1.88
2023-04-07T16:43:02.270Z,1.52
2023-04-07T16:45:30.720Z,1.85
2023-04-07T16:47:58.891Z,1.60
2023-04-07T16:50:27.001Z,1.20
2023-04-07T16:52:57.343Z,1.70
2023-04-07T16:55:27.327Z,1.52
2023-04-07T16:57:55.619Z,1.67
2023-04-07T17:00:24.126Z,1.30
2023-04-07T17:02:52.323Z,1.73
2023-04-07T17:05:20.943Z,1.80
2023-04-07T17:07:49.141Z,2.03
2023-04-07T17:10:17.405Z,1.60
2023-04-07T17:12:52.393Z,1.50
2023-04-07T17:15:21.858Z,1.50
2023-04-07T17:17:50.396Z,1.50
2023-04-07T17:20:19.141Z,1.40
2023-04-07T17:22:49.132Z,1.23
2023-04-07T17:25:19.132Z,1.67
2023-04-07T17:27:49.091Z,1.73
2023-04-07T17:30:18.888Z,1.58
2023-04-07T17:32:47.457Z,1.73
2023-04-07T17:35:15.638Z,1.95
2023-04-07T17:37:44.044Z,2.10
2023-04-07T17:40:12.662Z,2.20
2023-04-07T17:42:41.291Z,2.17
2023-04-07T17:45:11.869Z,1.60
2023-04-07T17:47:40.798Z,1.83
2023-04-07T17:50:09.860Z,2.17
2023-04-07T17:52:38.404Z,1.38
2023-04-07T17:55:07.974Z,2.45
2023-04-07T17:57:37.205Z,2.10
2023-04-07T18:00:06.887Z,1.85
2023-04-07T18:02:37.434Z,2.30
2023-04-07T18:05:07.788Z,1.85
2023-04-07T18:07:35.879Z,2.33
2023-04-07T18:10:04.199Z,2.30
2023-04-07T18:12:32.864Z,2.20
2023-04-07T18:15:00.935Z,2.05
2023-04-07T18:17:29.463Z,1.80
2023-04-07T18:19:58.951Z,1.98
2023-04-07T18:22:28.097Z,1.90
2023-04-07T18:24:56.487Z,2.10
2023-04-07T18:27:26.807Z,1.65
2023-04-07T18:29:54.911Z,1.88
2023-04-07T18:32:23.935Z,2.00
2023-04-07T18:34:53.682Z,1.95
2023-04-07T18:37:23.325Z,2.50
2023-04-07T18:39:52.552Z,2.03
2023-04-07T18:42:20.840Z,2.60
2023-04-07T18:44:49.149Z,2.60
2023-04-07T18:47:17.533Z,2.67
2023-04-07T18:49:45.602Z,2.15
2023-04-07T18:52:13.740Z,2.80
2023-04-07T18:54:43.219Z,2.58
2023-04-07T18:57:11.485Z,3.35
2023-04-07T18:59:39.584Z,2.90
2023-04-07T19:02:07.832Z,2.85
2023-04-07T19:04:36.237Z,3.22
2023-04-07T19:07:04.343Z,3.30
2023-04-07T19:09:33.242Z,3.00
2023-04-07T19:12:02.693Z,4.78
2023-04-07T19:14:31.019Z,3.30
2023-04-07T19:16:59.491Z,3.10
2023-04-07T19:19:28.462Z,3.53
2023-04-07T19:21:56.572Z,3.17
2023-04-07T19:24:24.680Z,3.78
2023-04-07T19:26:53.077Z,3.83
2023-04-07T19:29:22.605Z,2.30
2023-04-07T19:31:51.536Z,2.65
2023-04-07T19:34:19.783Z,2.80
2023-04-07T19:36:47.861Z,1.67
2023-04-07T19:39:16.188Z,2.55
2023-04-07T19:41:44.288Z,2.38
2023-04-07T19:44:12.679Z,2.53
2023-04-07T19:46:42.160Z,2.53
2023-04-07T19:49:10.281Z,1.92
2023-04-07T19:51:38.686Z,2.83
2023-04-07T19:54:06.769Z,3.28
2023-04-07T19:56:34.911Z,1.65
2023-04-07T19:59:03.202Z,2.72
2023-04-07T20:01:31.639Z,2.35
2023-04-07T20:04:01.655Z,1.13
2023-04-07T20:06:31.931Z,2.50
2023-04-07T20:09:01.451Z,2.58
2023-04-07T20:11:29.526Z,2.50
2023-04-07T20:13:57.758Z,2.60
2023-04-07T20:16:26.363Z,3.03
2023-04-07T20:18:55.180Z,2.55
2023-04-07T20:21:25.211Z,2.20
2023-04-07T20:23:53.280Z,2.78
2023-04-07T20:26:22.553Z,2.20
2023-04-07T20:28:51.127Z,0.98
2023-04-07T20:31:19.513Z,1.50
2023-04-07T20:33:47.828Z,3.05
2023-04-07T20:36:16.011Z,3.03
2023-04-07T20:38:45.802Z,2.45
2023-04-07T20:41:14.655Z,2.85
2023-04-07T20:43:42.827Z,2.40
2023-04-07T20:46:11.327Z,2.42
2023-04-07T20:48:39.715Z,2.45
2023-04-07T20:51:08.099Z,2.47
2023-04-07T20:53:36.346Z,2.53
2023-04-07T20:56:06.132Z,2.20
2023-04-07T20:58:34.261Z,3.08
2023-04-07T21:01:03.001Z,3.00
2023-04-07T21:03:31.504Z,3.03
2023-04-07T21:05:59.988Z,2.20
2023-04-07T21:08:28.467Z,2.47
2023-04-07T21:10:56.538Z,2.75
2023-04-07T21:13:27.254Z,2.75
2023-04-07T21:15:57.443Z,2.45
2023-04-07T21:18:26.480Z,3.10
2023-04-07T21:20:57.109Z,2.95
2023-04-07T21:23:25.419Z,3.22
2023-04-07T21:25:53.525Z,2.97
2023-04-07T21:28:21.929Z,2.42
2023-04-07T21:30:55.609Z,3.40
2023-04-07T21:33:24.247Z,2.35
2023-04-07T21:35:52.801Z,2.33
2023-04-07T21:38:21.035Z,3.05
2023-04-07T21:40:49.192Z,3.53
2023-04-07T21:43:17.265Z,2.03
2023-04-07T21:45:46.261Z,3.25
2023-04-07T21:48:16.250Z,3.58
2023-04-07T21:50:44.326Z,3.20
2023-04-07T21:53:12.707Z,2.90
2023-04-07T21:55:40.824Z,2.45
2023-04-07T21:58:09.417Z,3.78
2023-04-07T22:00:38.687Z,3.00
2023-04-07T22:03:07.702Z,3.85
2023-04-07T22:05:37.644Z,3.65
2023-04-07T22:08:06.949Z,3.20
2023-04-07T22:10:35.068Z,3.50
2023-04-07T22:13:04.000Z,3.92
2023-04-07T22:15:32.095Z,4.22
2023-04-07T22:18:00.305Z,2.85
2023-04-07T22:20:28.758Z,2.60
2023-04-07T22:22:58.204Z,3.45
2023-04-07T22:25:26.547Z,4.30
2023-04-07T22:27:56.799Z,3.50
2023-04-07T22:30:25.638Z,3.20
2023-04-07T22:32:53.844Z,3.67
2023-04-07T22:35:21.973Z,2.75
2023-04-07T22:37:50.377Z,2.42
2023-04-07T22:40:19.886Z,3.28
2023-04-07T22:42:47.976Z,3.00
2023-04-07T22:45:16.548Z,2.83
2023-04-07T22:47:45.218Z,3.20
2023-04-07T22:50:13.339Z,2.67
2023-04-07T22:52:41.869Z,3.17
2023-04-07T22:55:11.027Z,3.92
2023-04-07T22:57:40.759Z,2.88
2023-04-07T23:00:10.076Z,3.30
2023-04-07T23:02:38.645Z,3.10
2023-04-07T23:05:07.859Z,2.80
2023-04-07T23:07:35.931Z,2.88
2023-04-07T23:10:04.590Z,2.83
2023-04-07T23:12:32.714Z,3.03
2023-04-07T23:15:02.161Z,3.58
2023-04-07T23:17:30.613Z,2.85
2023-04-07T23:19:58.768Z,3.13
2023-04-07T23:22:27.410Z,3.15
2023-04-07T23:24:56.878Z,3.22
2023-04-07T23:27:25.000Z,3.15
2023-04-07T23:29:53.957Z,4.03
2023-04-07T23:32:23.419Z,3.50
2023-04-07T23:34:51.813Z,2.97
2023-04-07T23:37:19.892Z,3.10
2023-04-07T23:39:48.501Z,3.58
2023-04-07T23:42:16.780Z,3.08
2023-04-07T23:44:45.167Z,3.83
2023-04-07T23:47:13.222Z,3.45
2023-04-07T23:49:43.566Z,2.75
2023-04-07T23:52:12.393Z,3.30
2023-04-07T23:54:40.462Z,3.10
2023-04-07T23:57:08.774Z,3.22
2023-04-07T23:59:37.226Z,3.25
